createdAt,value
2019-01-09T00:01:47.736Z,100632.11
2019-01-09T00:04:17.154Z,100630.02
2019-01-09T00:06:46.560Z,100645.07
2019-01-09T00:09:16.166Z,100631.08
2019-01-09T00:11:46.190Z,100643.14
2019-01-09T00:14:16.000Z,100639.09
2019-01-09T00:16:46.132Z,100639.43
2019-01-09T00:19:15.981Z,100646.80
2019-01-09T00:21:45.979Z,100653.27
2019-01-09T00:24:16.096Z,100656.61
2019-01-09T00:26:46.006Z,100653.61
2019-01-09T00:29:16.023Z,100661.02
2019-01-09T00:31:46.190Z,100661.86
2019-01-09T00:34:16.058Z,100671.04
2019-01-09T00:36:46.057Z,100676.38
2019-01-09T00:39:16.216Z,100665.11
2019-01-09T00:41:46.063Z,100684.41
2019-01-09T00:44:16.076Z,100677.66
2019-01-09T00:46:46.236Z,100685.00
2019-01-09T00:49:16.161Z,100681.90
2019-01-09T00:51:46.086Z,100683.88
2019-01-09T00:54:16.159Z,100690.01
2019-01-09T00:56:46.229Z,100700.06
2019-01-09T00:59:16.224Z,100693.38
2019-01-09T01:01:52.659Z,100707.16
2019-01-09T01:05:07.415Z,100710.08
2019-01-09T01:08:05.304Z,100719.44
2019-01-09T01:11:04.242Z,100721.42
2019-01-09T01:14:17.944Z,100722.43
2019-01-09T01:17:37.137Z,100728.55
2019-01-09T01:20:19.258Z,100739.47
2019-01-09T01:23:29.669Z,100738.38
2019-01-09T01:26:21.740Z,100736.55
2019-01-09T01:29:36.705Z,100748.94
2019-01-09T01:32:41.434Z,100761.09
2019-01-09T01:35:54.656Z,100763.28
2019-01-09T01:39:05.940Z,100765.78
2019-01-09T01:42:07.506Z,100766.02
2019-01-09T01:45:02.865Z,100798.35
2019-01-09T01:48:08.333Z,100788.27
2019-01-09T01:51:21.696Z,100817.10
2019-01-09T01:54:33.824Z,100799.77
2019-01-09T01:57:48.472Z,100811.53
2019-01-09T02:00:35.633Z,100820.55
2019-01-09T02:03:52.291Z,100820.16
2019-01-09T02:07:17.575Z,100821.84
2019-01-09T02:10:06.156Z,100831.55
2019-01-09T02:13:17.836Z,100828.25
2019-01-09T02:16:32.118Z,100840.11
2019-01-09T02:19:27.821Z,100835.05
2019-01-09T02:22:28.053Z,100848.20
2019-01-09T02:25:44.185Z,100854.23
2019-01-09T02:28:29.439Z,100850.72
2019-01-09T02:31:36.913Z,100856.10
2019-01-09T02:34:06.508Z,100857.03
2019-01-09T02:36:35.916Z,100858.59
2019-01-09T02:39:06.116Z,100863.48
2019-01-09T02:41:35.684Z,100872.02
2019-01-09T02:44:05.124Z,100872.44
2019-01-09T02:46:34.522Z,100864.91
2019-01-09T02:49:04.011Z,100868.93
2019-01-09T02:51:33.439Z,100877.60
2019-01-09T02:54:02.840Z,100872.25
2019-01-09T02:56:32.333Z,100878.47
2019-01-09T02:59:01.738Z,100878.31
2019-01-09T03:01:31.244Z,100876.63
2019-01-09T03:04:00.775Z,100882.99
2019-01-09T03:06:30.165Z,100880.95
2019-01-09T03:08:59.577Z,100878.47
2019-01-09T03:11:29.083Z,100895.41
2019-01-09T03:13:58.465Z,100866.64
2019-01-09T03:16:27.863Z,100872.51
2019-01-09T03:18:57.510Z,100877.25
2019-01-09T03:21:26.896Z,100891.84
2019-01-09T03:23:56.272Z,100884.27
2019-01-09T03:26:25.705Z,100886.50
2019-01-09T03:28:55.146Z,100890.52
2019-01-09T03:31:24.570Z,100887.79
2019-01-09T03:33:54.091Z,100888.30
2019-01-09T03:36:32.314Z,100897.55
2019-01-09T03:38:54.644Z,100895.53
2019-01-09T03:41:24.088Z,100892.59
2019-01-09T03:43:53.469Z,100893.02
2019-01-09T03:46:22.876Z,100901.45
2019-01-09T03:48:52.342Z,100905.25
2019-01-09T03:51:21.784Z,100901.72
2019-01-09T03:53:51.169Z,100907.19
2019-01-09T03:56:20.627Z,100911.73
2019-01-09T03:58:50.077Z,100913.01
2019-01-09T04:01:19.444Z,100928.80
2019-01-09T04:03:48.883Z,100917.52
2019-01-09T04:06:18.364Z,100915.74
2019-01-09T04:08:47.767Z,100913.92
2019-01-09T04:11:17.244Z,100932.66
2019-01-09T04:13:46.605Z,100922.15
2019-01-09T04:16:16.654Z,100928.28
2019-01-09T04:18:46.558Z,100925.86
2019-01-09T04:21:16.434Z,100938.05
2019-01-09T04:23:46.557Z,100928.73
2019-01-09T04:26:16.542Z,100936.87
2019-01-09T04:28:46.401Z,100938.48
2019-01-09T04:31:16.417Z,100953.13
2019-01-09T04:33:46.477Z,100944.70
2019-01-09T04:36:16.452Z,100956.99
2019-01-09T04:38:46.506Z,100950.72
2019-01-09T04:41:16.533Z,100978.98
2019-01-09T04:43:46.463Z,100972.83
2019-01-09T04:46:16.493Z,100971.50
2019-01-09T04:48:46.648Z,100964.42
2019-01-09T04:51:16.446Z,100968.22
2019-01-09T04:53:46.463Z,100966.16
2019-01-09T04:56:16.636Z,100968.75
2019-01-09T04:58:46.481Z,100971.83
2019-01-09T05:01:16.527Z,100977.63
2019-01-09T05:03:46.621Z,100975.47
2019-01-09T05:06:16.498Z,100973.79
2019-01-09T05:08:46.480Z,100965.80
2019-01-09T05:11:17.084Z,100966.17
2019-01-09T05:13:46.517Z,100967.92
2019-01-09T05:16:17.928Z,100970.75
2019-01-09T05:18:47.419Z,100968.62
2019-01-09T05:21:16.794Z,100960.71
2019-01-09T05:23:46.853Z,100978.34
2019-01-09T05:26:16.730Z,100969.37
2019-01-09T05:28:46.512Z,100980.92
2019-01-09T05:31:16.536Z,100982.14
2019-01-09T05:33:46.706Z,100992.31
2019-01-09T05:36:16.521Z,100984.42
2019-01-09T05:38:46.544Z,100992.77
2019-01-09T05:41:16.707Z,100985.67
2019-01-09T05:43:46.587Z,100994.44
2019-01-09T05:46:16.574Z,101010.19
2019-01-09T05:48:46.692Z,101012.65
2019-01-09T05:51:16.658Z,101002.23
2019-01-09T05:53:46.607Z,101013.00
2019-01-09T05:56:16.691Z,101015.32
2019-01-09T05:58:46.605Z,101028.48
2019-01-09T06:01:16.595Z,101023.25
2019-01-09T06:03:46.753Z,101016.67
2019-01-09T06:06:16.609Z,101020.76
2019-01-09T06:08:46.583Z,101036.31
2019-01-09T06:11:16.705Z,101031.42
2019-01-09T06:13:46.611Z,101031.42
2019-01-09T06:16:18.662Z,101036.56
2019-01-09T06:18:48.080Z,101037.07
2019-01-09T06:21:17.451Z,101052.51
2019-01-09T06:23:46.845Z,101053.02
2019-01-09T06:26:16.787Z,101048.48
2019-01-09T06:28:46.728Z,101056.97
2019-01-09T06:31:16.655Z,101054.33
2019-01-09T06:33:46.711Z,101062.84
2019-01-09T06:36:16.643Z,101071.84
2019-01-09T06:38:46.639Z,101066.54
2019-01-09T06:41:16.702Z,101080.08
2019-01-09T06:43:46.634Z,101085.36
2019-01-09T06:46:16.730Z,101082.58
2019-01-09T06:48:46.784Z,101093.39
2019-01-09T06:51:16.773Z,101088.94
2019-01-09T06:53:46.753Z,101093.41
2019-01-09T06:56:17.054Z,101090.91
2019-01-09T06:58:46.704Z,101095.88
2019-01-09T07:01:16.703Z,101094.41
2019-01-09T07:03:46.912Z,101103.86
2019-01-09T07:06:16.722Z,101101.59
2019-01-09T07:08:46.737Z,101102.70
2019-01-09T07:11:16.763Z,101107.31
2019-01-09T07:13:46.771Z,101111.64
2019-01-09T07:16:16.766Z,101132.92
2019-01-09T07:18:46.908Z,101117.02
2019-01-09T07:21:16.829Z,101121.23
2019-01-09T07:23:46.817Z,101128.27
2019-01-09T07:26:16.876Z,101139.03
2019-01-09T07:28:46.831Z,101135.56
2019-01-09T07:31:16.781Z,101146.59
2019-01-09T07:33:46.998Z,101143.95
2019-01-09T07:36:16.795Z,101148.66
2019-01-09T07:38:46.768Z,101151.71
2019-01-09T07:41:16.848Z,101156.86
2019-01-09T07:43:46.763Z,101155.20
2019-01-09T07:46:16.798Z,101168.76
2019-01-09T07:48:47.079Z,101171.38
2019-01-09T07:51:16.809Z,101176.92
2019-01-09T07:53:46.841Z,101176.67
2019-01-09T07:56:17.122Z,101180.33
2019-01-09T07:58:46.803Z,101182.91
2019-01-09T08:01:16.804Z,101177.17
2019-01-09T08:03:46.944Z,101190.70
2019-01-09T08:06:16.841Z,101184.46
2019-01-09T08:08:46.857Z,101184.48
2019-01-09T08:11:16.907Z,101177.03
2019-01-09T08:13:46.842Z,101198.95
2019-01-09T08:16:16.825Z,101200.24
2019-01-09T08:18:48.360Z,101211.41
2019-01-09T08:21:17.143Z,101199.95
2019-01-09T08:23:46.866Z,101204.34
2019-01-09T08:26:17.011Z,101230.29
2019-01-09T08:28:46.839Z,101222.44
2019-01-09T08:31:16.891Z,101214.17
2019-01-09T08:33:46.978Z,101230.29
2019-01-09T08:36:16.859Z,101233.27
2019-01-09T08:38:46.911Z,101242.63
2019-01-09T08:41:17.398Z,101248.75
2019-01-09T08:43:46.904Z,101253.16
2019-01-09T08:46:16.873Z,101251.08
2019-01-09T08:48:47.040Z,101249.81
2019-01-09T08:51:16.904Z,101251.95
2019-01-09T08:53:46.876Z,101255.81
2019-01-09T08:56:18.854Z,101250.06
2019-01-09T08:58:48.225Z,101266.58
2019-01-09T09:01:17.624Z,101267.40
2019-01-09T09:03:47.202Z,101278.80
2019-01-09T09:06:16.942Z,101273.63
2019-01-09T09:08:47.442Z,101284.52
2019-01-09T09:11:17.122Z,101295.09
2019-01-09T09:13:46.934Z,101287.19
2019-01-09T09:16:16.937Z,101296.61
2019-01-09T09:18:47.066Z,101301.64
2019-01-09T09:21:16.942Z,101311.98
2019-01-09T09:23:46.947Z,101315.45
2019-01-09T09:26:17.165Z,101310.91
2019-01-09T09:28:46.944Z,101322.56
2019-01-09T09:31:16.957Z,101326.16
2019-01-09T09:33:47.069Z,101330.62
2019-01-09T09:36:16.993Z,101339.87
2019-01-09T09:38:46.967Z,101346.61
2019-01-09T09:41:17.165Z,101340.70
2019-01-09T09:43:47.034Z,101352.13
2019-01-09T09:46:16.967Z,101346.14
2019-01-09T09:48:47.044Z,101347.28
2019-01-09T09:51:16.995Z,101358.56
2019-01-09T09:53:47.052Z,101353.62
2019-01-09T09:56:17.102Z,101360.19
2019-01-09T09:58:47.036Z,101368.31
2019-01-09T10:01:17.004Z,101356.69
2019-01-09T10:03:47.195Z,101362.52
2019-01-09T10:06:17.008Z,101367.00
2019-01-09T10:08:47.034Z,101360.73
2019-01-09T10:11:17.175Z,101361.07
2019-01-09T10:13:47.026Z,101352.75
2019-01-09T10:16:17.076Z,101363.12
2019-01-09T10:18:47.119Z,101356.91
2019-01-09T10:21:17.014Z,101359.50
2019-01-09T10:23:47.038Z,101367.20
2019-01-09T10:26:17.489Z,101365.81
2019-01-09T10:28:47.106Z,101365.56
2019-01-09T10:31:17.037Z,101363.09
2019-01-09T10:33:47.186Z,101372.99
2019-01-09T10:36:17.080Z,101372.55
2019-01-09T10:38:47.103Z,101371.16
2019-01-09T10:41:17.214Z,101387.69
2019-01-09T10:43:47.052Z,101384.30
2019-01-09T10:46:17.273Z,101383.89
2019-01-09T10:48:47.156Z,101389.59
2019-01-09T10:51:17.103Z,101384.27
2019-01-09T10:53:47.106Z,101384.27
2019-01-09T10:56:17.242Z,101392.91
2019-01-09T10:58:47.100Z,101394.11
2019-01-09T11:01:17.178Z,101396.30
2019-01-09T11:03:47.197Z,101399.63
2019-01-09T11:06:17.123Z,101411.19
2019-01-09T11:08:47.416Z,101411.19
2019-01-09T11:11:17.164Z,101420.03
2019-01-09T11:13:47.241Z,101418.16
2019-01-09T11:16:19.962Z,101427.81
2019-01-09T11:18:49.496Z,101416.14
2019-01-09T11:21:18.900Z,101417.59
2019-01-09T11:23:48.278Z,101416.77
2019-01-09T11:26:19.597Z,101419.36
2019-01-09T11:28:48.989Z,101415.17
2019-01-09T11:31:18.389Z,101421.91
2019-01-09T11:33:47.842Z,101426.49
2019-01-09T11:36:17.300Z,101427.31
2019-01-09T11:38:55.468Z,101431.62
2019-01-09T11:41:18.401Z,101443.83
2019-01-09T11:43:47.777Z,101426.08
2019-01-09T11:46:17.231Z,101439.05
2019-01-09T11:48:47.459Z,101435.16
2019-01-09T11:51:17.182Z,101436.42
2019-01-09T11:53:47.180Z,101434.28
2019-01-09T11:56:17.250Z,101433.24
2019-01-09T11:58:47.224Z,101445.80
2019-01-09T12:01:17.179Z,101446.61
2019-01-09T12:03:47.247Z,101450.20
2019-01-09T12:06:17.242Z,101462.28
2019-01-09T12:08:49.279Z,101459.91
2019-01-09T12:11:18.452Z,101461.53
2019-01-09T12:13:47.825Z,101464.18
2019-01-09T12:16:17.227Z,101458.61
2019-01-09T12:18:47.381Z,101462.14
2019-01-09T12:21:17.261Z,101465.95
2019-01-09T12:23:47.243Z,101469.73
2019-01-09T12:26:17.376Z,101462.00
2019-01-09T12:28:53.477Z,101474.31
2019-01-09T12:31:18.363Z,101474.09
2019-01-09T12:33:47.895Z,101478.55
2019-01-09T12:36:17.289Z,101481.25
2019-01-09T12:38:47.291Z,101485.71
2019-01-09T12:41:17.450Z,101469.89
2019-01-09T12:43:47.320Z,101490.45
2019-01-09T12:46:17.279Z,101478.45
2019-01-09T12:48:47.483Z,101498.39
2019-01-09T12:51:17.512Z,101493.92
2019-01-09T12:53:47.329Z,101503.44
2019-01-09T12:56:17.367Z,101495.84
2019-01-09T12:58:47.350Z,101498.10
2019-01-09T13:01:17.355Z,101512.58
2019-01-09T13:03:47.475Z,101506.48
2019-01-09T13:06:17.357Z,101508.86
2019-01-09T13:08:47.335Z,101510.73
2019-01-09T13:11:17.449Z,101525.23
2019-01-09T13:13:47.392Z,101527.21
2019-01-09T13:16:17.355Z,101525.25
2019-01-09T13:18:47.469Z,101532.19
2019-01-09T13:21:17.352Z,101532.19
2019-01-09T13:23:47.356Z,101543.75
2019-01-09T13:26:17.420Z,101550.89
2019-01-09T13:28:47.353Z,101561.72
2019-01-09T13:31:17.349Z,101566.42
2019-01-09T13:33:47.524Z,101565.06
2019-01-09T13:36:17.429Z,101558.73
2019-01-09T13:38:47.405Z,101575.19
2019-01-09T13:41:17.608Z,101583.26
2019-01-09T13:43:47.432Z,101580.83
2019-01-09T13:46:17.464Z,101582.83
2019-01-09T13:48:47.552Z,101582.67
2019-01-09T13:51:17.479Z,101588.06
2019-01-09T13:53:47.515Z,101596.97
2019-01-09T13:56:17.559Z,101591.34
2019-01-09T13:58:47.454Z,101601.53
2019-01-09T14:01:17.496Z,101603.48
2019-01-09T14:03:47.536Z,101596.34
2019-01-09T14:06:17.450Z,101606.17
2019-01-09T14:08:47.501Z,101607.84
2019-01-09T14:11:17.561Z,101607.84
2019-01-09T14:13:47.467Z,101628.89
2019-01-09T14:16:18.636Z,101625.66
2019-01-09T14:18:55.095Z,101617.77
2019-01-09T14:21:20.265Z,101626.23
2019-01-09T14:23:49.637Z,101642.39
2019-01-09T14:26:19.077Z,101636.63
2019-01-09T14:28:48.475Z,101643.28
2019-01-09T14:31:17.856Z,101648.82
2019-01-09T14:33:47.684Z,101662.70
2019-01-09T14:36:18.214Z,101656.80
2019-01-09T14:38:47.618Z,101651.56
2019-01-09T14:41:17.639Z,101658.18
2019-01-09T14:43:47.531Z,101661.41
2019-01-09T14:46:17.544Z,101657.88
2019-01-09T14:48:47.763Z,101658.97
2019-01-09T14:51:17.548Z,101659.19
2019-01-09T14:53:48.250Z,101676.24
2019-01-09T14:56:17.768Z,101673.34
2019-01-09T14:58:47.616Z,101677.05
2019-01-09T15:01:17.594Z,101682.27
2019-01-09T15:03:47.716Z,101673.06
2019-01-09T15:06:17.603Z,101675.44
2019-01-09T15:08:47.611Z,101682.39
2019-01-09T15:11:17.699Z,101684.02
2019-01-09T15:13:47.607Z,101685.43
2019-01-09T15:16:18.915Z,101691.95
2019-01-09T15:18:48.498Z,101698.20
2019-01-09T15:21:17.875Z,101697.37
2019-01-09T15:23:48.908Z,101693.66
2019-01-09T15:26:18.492Z,101694.06
2019-01-09T15:28:47.849Z,101694.01
2019-01-09T15:31:17.668Z,101704.63
2019-01-09T15:33:47.682Z,101712.74
2019-01-09T15:36:17.657Z,101713.37
2019-01-09T15:38:47.657Z,101719.93
2019-01-09T15:41:17.756Z,101713.45
2019-01-09T15:43:47.675Z,101715.34
2019-01-09T15:46:17.732Z,101720.80
2019-01-09T15:48:47.813Z,101761.34
2019-01-09T15:51:17.940Z,101735.27
2019-01-09T15:53:47.689Z,101732.80
2019-01-09T15:56:17.749Z,101734.73
2019-01-09T15:58:47.687Z,101733.80
2019-01-09T16:01:17.854Z,101731.42
2019-01-09T16:03:47.893Z,101729.84
2019-01-09T16:06:17.716Z,101729.35
2019-01-09T16:08:47.772Z,101739.79
2019-01-09T16:11:17.833Z,101735.88
2019-01-09T16:13:47.764Z,101740.94
2019-01-09T16:16:18.909Z,101741.86
2019-01-09T16:18:48.439Z,101756.09
2019-01-09T16:21:17.823Z,101747.68
2019-01-09T16:23:47.787Z,101752.53
2019-01-09T16:26:17.845Z,101753.67
2019-01-09T16:28:47.769Z,101749.45
2019-01-09T16:31:32.832Z,101756.44
2019-01-09T16:34:02.225Z,101763.55
2019-01-09T16:36:32.346Z,101767.91
2019-01-09T16:39:02.120Z,101772.71
2019-01-09T16:41:31.505Z,101780.36
2019-01-09T16:44:00.909Z,101784.05
2019-01-09T16:46:30.353Z,101788.20
2019-01-09T16:48:59.741Z,101788.48
2019-01-09T16:51:29.139Z,101795.01
2019-01-09T16:53:58.575Z,101801.22
2019-01-09T16:56:27.952Z,101802.72
2019-01-09T16:58:57.405Z,101804.38
2019-01-09T17:01:26.896Z,101813.70
2019-01-09T17:03:56.454Z,101818.94
2019-01-09T17:06:25.834Z,101815.67
2019-01-09T17:08:55.371Z,101820.16
2019-01-09T17:11:24.781Z,101825.01
2019-01-09T17:13:54.191Z,101825.72
2019-01-09T17:16:23.721Z,101827.41
2019-01-09T17:18:53.191Z,101837.98
2019-01-09T17:21:22.850Z,101838.50
2019-01-09T17:23:52.337Z,101848.25
2019-01-09T17:26:21.738Z,101861.56
2019-01-09T17:28:51.168Z,101861.56
2019-01-09T17:31:20.768Z,101863.05
2019-01-09T17:33:50.514Z,101859.93
2019-01-09T17:36:19.907Z,101868.86
2019-01-09T17:38:49.343Z,101881.77
2019-01-09T17:41:18.774Z,101871.63
2019-01-09T17:43:48.559Z,101881.24
2019-01-09T17:46:18.795Z,101879.92
2019-01-09T17:48:48.565Z,101889.94
2019-01-09T17:51:18.562Z,101894.95
2019-01-09T17:53:48.682Z,101901.32
2019-01-09T17:56:18.594Z,101907.56
2019-01-09T17:58:48.604Z,101906.56
2019-01-09T18:01:18.766Z,101911.53
2019-01-09T18:03:48.602Z,101921.14
2019-01-09T18:06:18.563Z,101915.02
2019-01-09T18:08:48.806Z,101916.48
2019-01-09T18:11:18.604Z,101920.66
2019-01-09T18:13:48.719Z,101932.05
2019-01-09T18:16:18.674Z,101924.07
2019-01-09T18:18:48.571Z,101923.91
2019-01-09T18:21:18.589Z,101922.27
2019-01-09T18:23:49.035Z,101932.64
2019-01-09T18:26:18.632Z,101937.17
2019-01-09T18:28:48.599Z,101942.21
2019-01-09T18:31:43.870Z,101944.45
2019-01-09T18:34:27.433Z,101944.38
2019-01-09T18:37:28.633Z,101940.64
2019-01-09T18:40:33.077Z,101954.27
2019-01-09T18:43:32.727Z,101954.91
2019-01-09T18:46:54.985Z,101958.52
2019-01-09T18:49:46.085Z,101957.20
2019-01-09T18:52:34.601Z,101965.70
2019-01-09T18:55:04.313Z,101974.67
2019-01-09T18:57:33.681Z,101976.14
2019-01-09T19:00:03.183Z,101984.88
2019-01-09T19:02:32.929Z,101985.25
2019-01-09T19:05:02.432Z,101987.53
2019-01-09T19:07:31.861Z,101994.77
2019-01-09T19:10:01.455Z,101994.65
2019-01-09T19:12:30.974Z,102003.94
2019-01-09T19:15:00.629Z,102007.13
2019-01-09T19:17:30.350Z,102007.72
2019-01-09T19:19:59.715Z,102010.25
2019-01-09T19:22:29.097Z,102011.69
2019-01-09T19:24:58.637Z,102016.31
2019-01-09T19:27:29.470Z,102014.47
2019-01-09T19:29:58.887Z,102017.52
2019-01-09T19:32:28.315Z,102018.52
2019-01-09T19:34:57.702Z,102016.61
2019-01-09T19:37:27.085Z,102024.06
2019-01-09T19:39:56.534Z,102042.64
2019-01-09T19:42:25.935Z,102040.62
2019-01-09T19:44:55.644Z,102051.70
2019-01-09T19:47:25.220Z,102053.39
2019-01-09T19:49:54.727Z,102056.89
2019-01-09T19:52:24.076Z,102063.19
2019-01-09T19:54:53.604Z,102067.19
2019-01-09T19:57:22.980Z,102075.25
2019-01-09T19:59:52.367Z,102073.97
2019-01-09T20:02:21.989Z,102078.23
2019-01-09T20:04:51.376Z,102078.48
2019-01-09T20:07:20.857Z,102077.09
2019-01-09T20:09:50.338Z,102081.86
2019-01-09T20:12:20.175Z,102089.02
2019-01-09T20:14:50.271Z,102089.02
2019-01-09T20:17:20.466Z,102072.27
2019-01-09T20:19:50.207Z,102088.81
2019-01-09T20:22:20.195Z,102085.01
2019-01-09T20:24:50.341Z,102089.45
2019-01-09T20:27:20.269Z,102092.91
2019-01-09T20:29:50.252Z,102099.98
2019-01-09T20:32:20.297Z,102094.80
2019-01-09T20:34:50.313Z,102098.35
2019-01-09T20:37:20.380Z,102101.94
2019-01-09T20:39:50.449Z,102092.78
2019-01-09T20:42:20.293Z,102104.80
2019-01-09T20:44:50.278Z,102108.86
2019-01-09T20:47:20.423Z,102109.30
2019-01-09T20:49:50.333Z,102116.41
2019-01-09T20:52:20.272Z,102119.11
2019-01-09T20:54:50.467Z,102126.16
2019-01-09T20:57:20.369Z,102134.34
2019-01-09T20:59:50.244Z,102140.30
2019-01-09T21:02:20.398Z,102138.61
2019-01-09T21:04:50.330Z,102146.48
2019-01-09T21:07:20.394Z,102149.90
2019-01-09T21:09:50.542Z,102154.59
2019-01-09T21:12:20.337Z,102150.09
2019-01-09T21:14:50.487Z,102159.23
2019-01-09T21:17:20.396Z,102162.66
2019-01-09T21:19:50.482Z,102162.23
2019-01-09T21:22:20.337Z,102164.92
2019-01-09T21:24:50.552Z,102170.95
2019-01-09T21:27:20.311Z,102162.58
2019-01-09T21:29:50.361Z,102174.38
2019-01-09T21:32:20.395Z,102171.41
2019-01-09T21:34:50.384Z,102174.05
2019-01-09T21:37:20.365Z,102175.98
2019-01-09T21:39:50.534Z,102176.41
2019-01-09T21:42:20.359Z,102175.15
2019-01-09T21:44:50.363Z,102182.48
2019-01-09T21:47:20.565Z,102185.69
2019-01-09T21:49:50.405Z,102190.06
2019-01-09T21:52:20.389Z,102194.39
2019-01-09T21:54:50.505Z,102185.41
2019-01-09T21:57:20.384Z,102208.70
2019-01-09T21:59:50.501Z,102204.69
2019-01-09T22:02:20.554Z,102211.69
2019-01-09T22:04:50.410Z,102215.59
2019-01-09T22:07:21.486Z,102216.39
2019-01-09T22:09:50.951Z,102222.16
2019-01-09T22:12:20.699Z,102223.08
2019-01-09T22:14:50.416Z,102234.52
2019-01-09T22:17:20.492Z,102232.66
2019-01-09T22:19:50.455Z,102237.60
2019-01-09T22:22:20.551Z,102230.16
2019-01-09T22:24:50.505Z,102246.52
2019-01-09T22:27:20.439Z,102240.27
2019-01-09T22:29:50.438Z,102246.70
2019-01-09T22:32:22.381Z,102245.20
2019-01-09T22:34:51.963Z,102243.14
2019-01-09T22:37:21.404Z,102247.13
2019-01-09T22:39:50.962Z,102251.48
2019-01-09T22:42:20.483Z,102243.72
2019-01-09T22:44:50.428Z,102245.34
2019-01-09T22:47:20.562Z,102246.77
2019-01-09T22:49:50.461Z,102250.70
2019-01-09T22:52:20.454Z,102254.31
2019-01-09T22:54:50.618Z,102260.48
2019-01-09T22:57:20.841Z,102253.70
2019-01-09T22:59:50.474Z,102253.28
2019-01-09T23:02:21.330Z,102247.94
2019-01-09T23:04:50.788Z,102254.08
2019-01-09T23:07:20.577Z,102258.41
2019-01-09T23:09:50.531Z,102249.58
2019-01-09T23:12:21.638Z,102248.81
2019-01-09T23:14:51.054Z,102250.55
2019-01-09T23:17:20.576Z,102255.86
2019-01-09T23:19:50.500Z,102254.47
2019-01-09T23:22:20.507Z,102246.89
2019-01-09T23:24:50.631Z,102249.53
2019-01-09T23:27:20.852Z,102240.73
2019-01-09T23:29:50.588Z,102241.20
2019-01-09T23:32:20.699Z,102242.56
2019-01-09T23:34:50.629Z,102246.89
2019-01-09T23:37:20.667Z,102241.56
2019-01-09T23:39:50.678Z,102247.43
2019-01-09T23:42:20.674Z,102244.73
2019-01-09T23:44:50.555Z,102244.34
2019-01-09T23:47:20.730Z,102248.52
2019-01-09T23:49:50.578Z,102254.06
2019-01-09T23:52:20.556Z,102253.75
2019-01-09T23:54:50.654Z,102259.27
2019-01-09T23:57:20.583Z,102258.21
2019-01-09T23:59:50.596Z,102260.72
